sensor_id;sensor_type;location;lat;lon;timestamp;P1;durP1;ratioP1;P2;durP2;ratioP2
50337;SDS011;46221;51.178;5.900;2022-09-12T00:01:09;6.65;;;4.55;;
50337;SDS011;46221;51.178;5.900;2022-09-12T00:03:38;5.95;;;4.82;;
50337;SDS011;46221;51.178;5.900;2022-09-12T00:08:37;5.97;;;4.40;;
50337;SDS011;46221;51.178;5.900;2022-09-12T00:11:04;5.57;;;4.47;;
50337;SDS011;46221;51.178;5.900;2022-09-12T00:13:31;5.07;;;4.40;;
50337;SDS011;46221;51.178;5.900;2022-09-12T00:15:58;6.28;;;4.47;;
50337;SDS011;46221;51.178;5.900;2022-09-12T00:18:24;5.18;;;4.68;;
50337;SDS011;46221;51.178;5.900;2022-09-12T00:20:50;4.82;;;4.10;;
50337;SDS011;46221;51.178;5.900;2022-09-12T00:23:17;6.93;;;4.90;;
50337;SDS011;46221;51.178;5.900;2022-09-12T00:25:44;5.55;;;4.45;;
50337;SDS011;46221;51.178;5.900;2022-09-12T00:28:11;6.38;;;4.97;;
50337;SDS011;46221;51.178;5.900;2022-09-12T00:30:44;5.68;;;4.28;;
50337;SDS011;46221;51.178;5.900;2022-09-12T00:33:12;6.38;;;4.78;;
50337;SDS011;46221;51.178;5.900;2022-09-12T00:35:49;5.30;;;4.20;;
50337;SDS011;46221;51.178;5.900;2022-09-12T00:38:18;5.47;;;4.38;;
50337;SDS011;46221;51.178;5.900;2022-09-12T00:40:46;5.72;;;3.80;;
50337;SDS011;46221;51.178;5.900;2022-09-12T00:45:56;5.88;;;4.20;;
50337;SDS011;46221;51.178;5.900;2022-09-12T00:48:25;6.40;;;4.22;;
50337;SDS011;46221;51.178;5.900;2022-09-12T00:50:54;6.70;;;4.43;;
50337;SDS011;46221;51.178;5.900;2022-09-12T00:53:21;5.28;;;4.10;;
50337;SDS011;46221;51.178;5.900;2022-09-12T00:55:48;5.60;;;4.47;;
50337;SDS011;46221;51.178;5.900;2022-09-12T01:00:41;6.03;;;4.90;;
50337;SDS011;46221;51.178;5.900;2022-09-12T01:03:08;5.93;;;4.18;;
50337;SDS011;46221;51.178;5.900;2022-09-12T01:05:36;4.82;;;3.92;;
50337;SDS011;46221;51.178;5.900;2022-09-12T01:08:05;5.65;;;4.38;;
50337;SDS011;46221;51.178;5.900;2022-09-12T01:10:33;5.57;;;4.10;;
50337;SDS011;46221;51.178;5.900;2022-09-12T01:13:00;5.50;;;4.35;;
50337;SDS011;46221;51.178;5.900;2022-09-12T01:15:26;5.32;;;4.32;;
50337;SDS011;46221;51.178;5.900;2022-09-12T01:23:00;5.93;;;4.45;;
50337;SDS011;46221;51.178;5.900;2022-09-12T01:25:45;5.78;;;4.40;;
50337;SDS011;46221;51.178;5.900;2022-09-12T01:38:31;5.55;;;4.47;;
50337;SDS011;46221;51.178;5.900;2022-09-12T01:41:23;6.53;;;4.40;;
50337;SDS011;46221;51.178;5.900;2022-09-12T01:43:51;6.32;;;4.47;;
50337;SDS011;46221;51.178;5.900;2022-09-12T01:46:25;5.90;;;4.28;;
50337;SDS011;46221;51.178;5.900;2022-09-12T01:49:01;7.75;;;4.80;;
50337;SDS011;46221;51.178;5.900;2022-09-12T01:51:32;6.53;;;4.53;;
50337;SDS011;46221;51.178;5.900;2022-09-12T01:54:04;6.65;;;4.63;;
50337;SDS011;46221;51.178;5.900;2022-09-12T01:56:32;5.28;;;4.18;;
50337;SDS011;46221;51.178;5.900;2022-09-12T01:59:02;5.78;;;4.30;;
50337;SDS011;46221;51.178;5.900;2022-09-12T02:01:30;5.10;;;4.10;;
50337;SDS011;46221;51.178;5.900;2022-09-12T02:04:05;6.22;;;4.13;;
50337;SDS011;46221;51.178;5.900;2022-09-12T02:06:36;5.55;;;4.50;;
50337;SDS011;46221;51.178;5.900;2022-09-12T02:09:09;5.63;;;4.13;;
50337;SDS011;46221;51.178;5.900;2022-09-12T02:11:37;5.90;;;4.10;;
50337;SDS011;46221;51.178;5.900;2022-09-12T02:14:06;6.50;;;4.57;;
50337;SDS011;46221;51.178;5.900;2022-09-12T02:19:20;5.57;;;4.35;;
50337;SDS011;46221;51.178;5.900;2022-09-12T02:21:52;4.90;;;3.70;;
50337;SDS011;46221;51.178;5.900;2022-09-12T02:24:19;6.22;;;5.15;;
50337;SDS011;46221;51.178;5.900;2022-09-12T02:26:54;6.03;;;4.70;;
50337;SDS011;46221;51.178;5.900;2022-09-12T02:29:22;6.60;;;4.72;;
50337;SDS011;46221;51.178;5.900;2022-09-12T02:31:52;5.65;;;4.03;;
50337;SDS011;46221;51.178;5.900;2022-09-12T02:39:31;5.25;;;4.45;;
50337;SDS011;46221;51.178;5.900;2022-09-12T02:41:58;6.53;;;4.40;;
50337;SDS011;46221;51.178;5.900;2022-09-12T02:44:26;5.22;;;4.00;;
50337;SDS011;46221;51.178;5.900;2022-09-12T02:46:54;5.10;;;4.05;;
50337;SDS011;46221;51.178;5.900;2022-09-12T02:49:21;6.35;;;4.13;;
50337;SDS011;46221;51.178;5.900;2022-09-12T02:51:48;5.72;;;4.00;;
50337;SDS011;46221;51.178;5.900;2022-09-12T02:54:14;5.80;;;4.25;;
50337;SDS011;46221;51.178;5.900;2022-09-12T02:56:42;6.40;;;4.68;;
50337;SDS011;46221;51.178;5.900;2022-09-12T02:59:10;6.10;;;3.90;;
50337;SDS011;46221;51.178;5.900;2022-09-12T03:01:55;5.07;;;3.90;;
50337;SDS011;46221;51.178;5.900;2022-09-12T03:04:50;5.47;;;4.13;;
50337;SDS011;46221;51.178;5.900;2022-09-12T03:13:23;5.15;;;4.50;;
50337;SDS011;46221;51.178;5.900;2022-09-12T03:16:12;5.68;;;4.25;;
50337;SDS011;46221;51.178;5.900;2022-09-12T03:18:47;9.05;;;4.38;;
50337;SDS011;46221;51.178;5.900;2022-09-12T03:21:18;6.20;;;4.22;;
50337;SDS011;46221;51.178;5.900;2022-09-12T03:27:19;5.20;;;3.83;;
50337;SDS011;46221;51.178;5.900;2022-09-12T03:29:12;5.85;;;4.20;;
50337;SDS011;46221;51.178;5.900;2022-09-12T03:31:46;5.72;;;3.92;;
50337;SDS011;46221;51.178;5.900;2022-09-12T03:34:12;5.60;;;4.30;;
50337;SDS011;46221;51.178;5.900;2022-09-12T03:36:39;5.72;;;4.05;;
50337;SDS011;46221;51.178;5.900;2022-09-12T03:39:06;6.65;;;4.60;;
50337;SDS011;46221;51.178;5.900;2022-09-12T03:41:33;6.40;;;4.53;;
50337;SDS011;46221;51.178;5.900;2022-09-12T03:43:59;5.70;;;4.30;;
50337;SDS011;46221;51.178;5.900;2022-09-12T03:46:25;5.88;;;4.32;;
50337;SDS011;46221;51.178;5.900;2022-09-12T03:48:51;6.70;;;4.30;;
50337;SDS011;46221;51.178;5.900;2022-09-12T03:51:18;6.32;;;4.65;;
50337;SDS011;46221;51.178;5.900;2022-09-12T03:53:44;5.60;;;4.10;;
50337;SDS011;46221;51.178;5.900;2022-09-12T03:56:11;5.97;;;4.32;;
50337;SDS011;46221;51.178;5.900;2022-09-12T03:58:37;7.00;;;4.68;;
50337;SDS011;46221;51.178;5.900;2022-09-12T04:03:38;5.93;;;4.18;;
50337;SDS011;46221;51.178;5.900;2022-09-12T04:06:05;4.97;;;4.03;;
50337;SDS011;46221;51.178;5.900;2022-09-12T04:08:32;6.22;;;4.25;;
50337;SDS011;46221;51.178;5.900;2022-09-12T04:11:03;5.85;;;4.32;;
50337;SDS011;46221;51.178;5.900;2022-09-12T04:13:30;6.22;;;4.28;;
50337;SDS011;46221;51.178;5.900;2022-09-12T04:15:57;7.43;;;4.55;;
50337;SDS011;46221;51.178;5.900;2022-09-12T04:18:23;5.18;;;3.83;;
50337;SDS011;46221;51.178;5.900;2022-09-12T04:20:50;7.07;;;4.20;;
50337;SDS011;46221;51.178;5.900;2022-09-12T04:23:16;6.55;;;4.57;;
50337;SDS011;46221;51.178;5.900;2022-09-12T04:25:43;5.05;;;4.18;;
50337;SDS011;46221;51.178;5.900;2022-09-12T04:28:09;6.13;;;4.75;;
50337;SDS011;46221;51.178;5.900;2022-09-12T04:30:35;5.55;;;3.83;;
50337;SDS011;46221;51.178;5.900;2022-09-12T04:33:01;5.93;;;4.75;;
50337;SDS011;46221;51.178;5.900;2022-09-12T04:35:33;5.45;;;4.38;;
50337;SDS011;46221;51.178;5.900;2022-09-12T04:38:00;4.80;;;3.65;;
50337;SDS011;46221;51.178;5.900;2022-09-12T04:40:28;5.93;;;4.38;;
50337;SDS011;46221;51.178;5.900;2022-09-12T04:42:54;5.68;;;3.97;;
50337;SDS011;46221;51.178;5.900;2022-09-12T04:45:21;4.63;;;4.00;;
50337;SDS011;46221;51.178;5.900;2022-09-12T04:47:47;6.22;;;5.10;;
50337;SDS011;46221;51.178;5.900;2022-09-12T04:50:14;4.38;;;3.75;;
50337;SDS011;46221;51.178;5.900;2022-09-12T04:52:40;5.68;;;4.05;;
50337;SDS011;46221;51.178;5.900;2022-09-12T04:55:07;4.95;;;3.83;;
50337;SDS011;46221;51.178;5.900;2022-09-12T04:57:36;5.03;;;3.90;;
50337;SDS011;46221;51.178;5.900;2022-09-12T05:00:03;4.50;;;3.70;;
50337;SDS011;46221;51.178;5.900;2022-09-12T05:02:32;5.68;;;4.25;;
50337;SDS011;46221;51.178;5.900;2022-09-12T05:04:59;5.95;;;4.80;;
50337;SDS011;46221;51.178;5.900;2022-09-12T05:07:26;6.38;;;4.47;;
50337;SDS011;46221;51.178;5.900;2022-09-12T05:09:52;6.95;;;4.65;;
50337;SDS011;46221;51.178;5.900;2022-09-12T05:12:18;17.27;;;5.10;;
50337;SDS011;46221;51.178;5.900;2022-09-12T05:14:45;8.07;;;4.47;;
50337;SDS011;46221;51.178;5.900;2022-09-12T05:17:11;7.53;;;4.18;;
50337;SDS011;46221;51.178;5.900;2022-09-12T05:19:37;7.82;;;3.92;;
50337;SDS011;46221;51.178;5.900;2022-09-12T05:22:04;5.88;;;3.67;;
50337;SDS011;46221;51.178;5.900;2022-09-12T05:24:31;6.30;;;3.70;;
50337;SDS011;46221;51.178;5.900;2022-09-12T05:26:58;6.97;;;3.90;;
50337;SDS011;46221;51.178;5.900;2022-09-12T05:29:24;5.95;;;3.83;;
50337;SDS011;46221;51.178;5.900;2022-09-12T05:31:51;5.45;;;4.00;;
50337;SDS011;46221;51.178;5.900;2022-09-12T05:34:18;6.00;;;4.05;;
50337;SDS011;46221;51.178;5.900;2022-09-12T05:36:45;6.75;;;4.28;;
50337;SDS011;46221;51.178;5.900;2022-09-12T05:39:12;6.95;;;4.40;;
50337;SDS011;46221;51.178;5.900;2022-09-12T05:41:38;7.47;;;4.68;;
50337;SDS011;46221;51.178;5.900;2022-09-12T05:44:05;5.70;;;4.53;;
50337;SDS011;46221;51.178;5.900;2022-09-12T05:46:36;8.10;;;5.63;;
50337;SDS011;46221;51.178;5.900;2022-09-12T05:49:03;6.22;;;4.32;;
50337;SDS011;46221;51.178;5.900;2022-09-12T05:51:31;6.25;;;4.80;;
50337;SDS011;46221;51.178;5.900;2022-09-12T05:53:59;7.68;;;4.90;;
50337;SDS011;46221;51.178;5.900;2022-09-12T05:56:27;7.18;;;5.30;;
50337;SDS011;46221;51.178;5.900;2022-09-12T05:58:55;8.07;;;5.53;;
50337;SDS011;46221;51.178;5.900;2022-09-12T06:01:21;8.43;;;5.53;;
50337;SDS011;46221;51.178;5.900;2022-09-12T06:03:49;6.90;;;5.30;;
50337;SDS011;46221;51.178;5.900;2022-09-12T06:06:17;8.60;;;5.22;;
50337;SDS011;46221;51.178;5.900;2022-09-12T06:08:45;6.95;;;5.38;;
50337;SDS011;46221;51.178;5.900;2022-09-12T06:11:12;9.48;;;5.70;;
50337;SDS011;46221;51.178;5.900;2022-09-12T06:13:40;8.73;;;4.78;;
50337;SDS011;46221;51.178;5.900;2022-09-12T06:16:08;7.38;;;5.20;;
50337;SDS011;46221;51.178;5.900;2022-09-12T06:18:35;9.23;;;4.90;;
50337;SDS011;46221;51.178;5.900;2022-09-12T06:21:11;14.20;;;6.00;;
50337;SDS011;46221;51.178;5.900;2022-09-12T06:23:38;7.43;;;5.32;;
50337;SDS011;46221;51.178;5.900;2022-09-12T06:26:05;9.40;;;5.40;;
50337;SDS011;46221;51.178;5.900;2022-09-12T06:28:36;7.82;;;5.47;;
50337;SDS011;46221;51.178;5.900;2022-09-12T06:31:03;6.85;;;5.22;;
50337;SDS011;46221;51.178;5.900;2022-09-12T06:33:32;7.63;;;5.13;;
50337;SDS011;46221;51.178;5.900;2022-09-12T06:36:02;8.63;;;4.43;;
50337;SDS011;46221;51.178;5.900;2022-09-12T06:38:34;6.72;;;4.18;;
50337;SDS011;46221;51.178;5.900;2022-09-12T06:41:04;6.35;;;4.55;;
50337;SDS011;46221;51.178;5.900;2022-09-12T06:43:32;9.20;;;4.07;;
50337;SDS011;46221;51.178;5.900;2022-09-12T06:45:58;8.68;;;4.18;;
50337;SDS011;46221;51.178;5.900;2022-09-12T06:48:25;7.75;;;4.63;;
50337;SDS011;46221;51.178;5.900;2022-09-12T06:50:55;6.35;;;4.40;;
50337;SDS011;46221;51.178;5.900;2022-09-12T06:53:22;6.45;;;4.28;;
50337;SDS011;46221;51.178;5.900;2022-09-12T06:55:56;7.03;;;4.35;;
50337;SDS011;46221;51.178;5.900;2022-09-12T06:58:23;8.95;;;4.80;;
50337;SDS011;46221;51.178;5.900;2022-09-12T07:00:49;8.38;;;4.68;;
50337;SDS011;46221;51.178;5.900;2022-09-12T07:03:22;7.10;;;4.90;;
50337;SDS011;46221;51.178;5.900;2022-09-12T07:05:48;8.32;;;5.57;;
50337;SDS011;46221;51.178;5.900;2022-09-12T07:08:14;8.65;;;5.07;;
50337;SDS011;46221;51.178;5.900;2022-09-12T07:10:41;6.93;;;3.92;;
50337;SDS011;46221;51.178;5.900;2022-09-12T07:13:07;6.63;;;4.32;;
50337;SDS011;46221;51.178;5.900;2022-09-12T07:15:34;8.23;;;4.72;;
50337;SDS011;46221;51.178;5.900;2022-09-12T07:18:01;7.65;;;4.78;;
50337;SDS011;46221;51.178;5.900;2022-09-12T07:20:28;8.38;;;4.72;;
50337;SDS011;46221;51.178;5.900;2022-09-12T07:22:55;7.40;;;4.50;;
50337;SDS011;46221;51.178;5.900;2022-09-12T07:25:23;7.18;;;4.50;;
50337;SDS011;46221;51.178;5.900;2022-09-12T07:27:51;7.38;;;4.75;;
50337;SDS011;46221;51.178;5.900;2022-09-12T07:30:17;7.47;;;4.55;;
50337;SDS011;46221;51.178;5.900;2022-09-12T07:32:44;7.45;;;4.25;;
50337;SDS011;46221;51.178;5.900;2022-09-12T07:35:10;6.65;;;4.88;;
50337;SDS011;46221;51.178;5.900;2022-09-12T07:37:36;8.52;;;4.55;;
50337;SDS011;46221;51.178;5.900;2022-09-12T07:40:03;6.75;;;4.25;;
50337;SDS011;46221;51.178;5.900;2022-09-12T07:42:29;8.13;;;5.20;;
50337;SDS011;46221;51.178;5.900;2022-09-12T07:44:56;6.88;;;4.32;;
50337;SDS011;46221;51.178;5.900;2022-09-12T07:47:22;6.22;;;4.78;;
50337;SDS011;46221;51.178;5.900;2022-09-12T07:49:49;6.10;;;4.32;;
50337;SDS011;46221;51.178;5.900;2022-09-12T07:52:15;7.55;;;4.28;;
50337;SDS011;46221;51.178;5.900;2022-09-12T07:54:41;7.13;;;4.72;;
50337;SDS011;46221;51.178;5.900;2022-09-12T07:57:08;6.97;;;4.93;;
50337;SDS011;46221;51.178;5.900;2022-09-12T07:59:34;8.32;;;5.85;;
50337;SDS011;46221;51.178;5.900;2022-09-12T08:02:18;5.93;;;4.38;;
50337;SDS011;46221;51.178;5.900;2022-09-12T08:04:45;6.45;;;4.18;;
50337;SDS011;46221;51.178;5.900;2022-09-12T08:07:12;7.40;;;4.22;;
50337;SDS011;46221;51.178;5.900;2022-09-12T08:09:38;6.10;;;5.30;;
50337;SDS011;46221;51.178;5.900;2022-09-12T08:12:04;6.63;;;5.10;;
50337;SDS011;46221;51.178;5.900;2022-09-12T08:14:31;7.10;;;5.28;;
50337;SDS011;46221;51.178;5.900;2022-09-12T08:16:59;8.15;;;5.30;;
50337;SDS011;46221;51.178;5.900;2022-09-12T08:19:25;6.93;;;5.00;;
50337;SDS011;46221;51.178;5.900;2022-09-12T08:21:52;8.32;;;5.20;;
50337;SDS011;46221;51.178;5.900;2022-09-12T08:24:18;6.35;;;4.68;;
50337;SDS011;46221;51.178;5.900;2022-09-12T08:26:45;7.30;;;4.72;;
50337;SDS011;46221;51.178;5.900;2022-09-12T08:29:11;6.53;;;4.65;;
50337;SDS011;46221;51.178;5.900;2022-09-12T08:31:38;7.20;;;4.47;;
50337;SDS011;46221;51.178;5.900;2022-09-12T08:34:06;5.72;;;4.28;;
50337;SDS011;46221;51.178;5.900;2022-09-12T08:36:33;5.47;;;4.03;;
50337;SDS011;46221;51.178;5.900;2022-09-12T08:39:04;6.75;;;4.88;;
50337;SDS011;46221;51.178;5.900;2022-09-12T08:49:09;6.22;;;4.20;;
50337;SDS011;46221;51.178;5.900;2022-09-12T08:51:37;6.63;;;4.13;;
50337;SDS011;46221;51.178;5.900;2022-09-12T08:54:17;4.50;;;3.50;;
50337;SDS011;46221;51.178;5.900;2022-09-12T08:56:44;8.98;;;5.00;;
50337;SDS011;46221;51.178;5.900;2022-09-12T08:59:11;5.70;;;3.97;;
50337;SDS011;46221;51.178;5.900;2022-09-12T09:01:42;5.32;;;3.45;;
50337;SDS011;46221;51.178;5.900;2022-09-12T09:09:19;6.82;;;4.45;;
50337;SDS011;46221;51.178;5.900;2022-09-12T09:11:51;5.50;;;4.55;;
50337;SDS011;46221;51.178;5.900;2022-09-12T09:17:11;8.35;;;6.45;;
50337;SDS011;46221;51.178;5.900;2022-09-12T09:19:40;8.43;;;6.38;;
50337;SDS011;46221;51.178;5.900;2022-09-12T09:22:15;5.65;;;3.95;;
50337;SDS011;46221;51.178;5.900;2022-09-12T09:24:48;7.82;;;4.80;;
50337;SDS011;46221;51.178;5.900;2022-09-12T09:30:16;5.13;;;4.53;;
50337;SDS011;46221;51.178;5.900;2022-09-12T09:32:43;7.57;;;5.30;;
50337;SDS011;46221;51.178;5.900;2022-09-12T09:35:14;5.78;;;3.75;;
50337;SDS011;46221;51.178;5.900;2022-09-12T09:37:42;7.43;;;5.40;;
50337;SDS011;46221;51.178;5.900;2022-09-12T09:42:59;6.28;;;4.95;;
50337;SDS011;46221;51.178;5.900;2022-09-12T09:45:26;6.60;;;4.25;;
50337;SDS011;46221;51.178;5.900;2022-09-12T09:47:56;6.35;;;4.25;;
50337;SDS011;46221;51.178;5.900;2022-09-12T09:50:23;8.85;;;6.93;;
50337;SDS011;46221;51.178;5.900;2022-09-12T09:52:50;6.20;;;4.53;;
50337;SDS011;46221;51.178;5.900;2022-09-12T09:55:18;6.40;;;3.63;;
50337;SDS011;46221;51.178;5.900;2022-09-12T09:57:46;12.02;;;9.13;;
50337;SDS011;46221;51.178;5.900;2022-09-12T10:02:59;5.93;;;5.00;;
50337;SDS011;46221;51.178;5.900;2022-09-12T10:05:25;7.53;;;5.40;;
50337;SDS011;46221;51.178;5.900;2022-09-12T10:07:53;7.20;;;5.63;;
50337;SDS011;46221;51.178;5.900;2022-09-12T10:10:20;10.95;;;8.95;;
50337;SDS011;46221;51.178;5.900;2022-09-12T10:12:50;9.98;;;6.72;;
50337;SDS011;46221;51.178;5.900;2022-09-12T10:15:21;9.80;;;6.78;;
50337;SDS011;46221;51.178;5.900;2022-09-12T10:17:48;5.43;;;3.88;;
50337;SDS011;46221;51.178;5.900;2022-09-12T10:20:35;4.65;;;3.88;;
50337;SDS011;46221;51.178;5.900;2022-09-12T10:23:14;7.45;;;5.03;;
50337;SDS011;46221;51.178;5.900;2022-09-12T10:25:51;7.90;;;6.00;;
50337;SDS011;46221;51.178;5.900;2022-09-12T10:28:20;5.18;;;4.35;;
50337;SDS011;46221;51.178;5.900;2022-09-12T10:30:54;5.40;;;3.35;;
50337;SDS011;46221;51.178;5.900;2022-09-12T10:33:21;5.50;;;4.28;;
50337;SDS011;46221;51.178;5.900;2022-09-12T10:35:48;7.85;;;4.95;;
50337;SDS011;46221;51.178;5.900;2022-09-12T10:38:22;11.00;;;6.50;;
50337;SDS011;46221;51.178;5.900;2022-09-12T10:43:25;7.43;;;5.28;;
50337;SDS011;46221;51.178;5.900;2022-09-12T10:45:56;6.25;;;4.53;;
50337;SDS011;46221;51.178;5.900;2022-09-12T10:48:30;6.30;;;4.25;;
50337;SDS011;46221;51.178;5.900;2022-09-12T10:50:57;6.82;;;5.80;;
50337;SDS011;46221;51.178;5.900;2022-09-12T10:53:25;6.75;;;5.07;;
50337;SDS011;46221;51.178;5.900;2022-09-12T11:00:56;5.68;;;3.55;;
50337;SDS011;46221;51.178;5.900;2022-09-12T11:03:37;6.43;;;5.38;;
50337;SDS011;46221;51.178;5.900;2022-09-12T11:06:06;4.63;;;3.92;;
50337;SDS011;46221;51.178;5.900;2022-09-12T11:19:18;4.55;;;3.75;;
50337;SDS011;46221;51.178;5.900;2022-09-12T11:21:53;4.43;;;3.70;;
50337;SDS011;46221;51.178;5.900;2022-09-12T11:29:46;8.40;;;4.38;;
50337;SDS011;46221;51.178;5.900;2022-09-12T11:42:46;4.40;;;3.50;;
50337;SDS011;46221;51.178;5.900;2022-09-12T11:45:16;4.82;;;3.60;;
50337;SDS011;46221;51.178;5.900;2022-09-12T11:47:45;5.03;;;3.95;;
50337;SDS011;46221;51.178;5.900;2022-09-12T11:50:19;3.85;;;3.25;;
50337;SDS011;46221;51.178;5.900;2022-09-12T11:52:46;4.00;;;3.13;;
50337;SDS011;46221;51.178;5.900;2022-09-12T11:55:17;4.28;;;3.47;;
50337;SDS011;46221;51.178;5.900;2022-09-12T11:57:51;4.20;;;3.17;;
50337;SDS011;46221;51.178;5.900;2022-09-12T12:00:20;4.30;;;3.38;;
50337;SDS011;46221;51.178;5.900;2022-09-12T12:05:21;3.30;;;2.80;;
50337;SDS011;46221;51.178;5.900;2022-09-12T12:07:56;4.20;;;3.20;;
50337;SDS011;46221;51.178;5.900;2022-09-12T12:13:00;5.18;;;4.03;;
50337;SDS011;46221;51.178;5.900;2022-09-12T12:15:28;4.60;;;3.25;;
50337;SDS011;46221;51.178;5.900;2022-09-12T12:18:01;4.25;;;3.00;;
50337;SDS011;46221;51.178;5.900;2022-09-12T12:20:29;3.28;;;2.75;;
50337;SDS011;46221;51.178;5.900;2022-09-12T12:22:58;3.22;;;2.60;;
50337;SDS011;46221;51.178;5.900;2022-09-12T12:25:36;4.68;;;2.95;;
50337;SDS011;46221;51.178;5.900;2022-09-12T12:28:04;6.38;;;3.30;;
50337;SDS011;46221;51.178;5.900;2022-09-12T12:35:43;3.38;;;2.40;;
50337;SDS011;46221;51.178;5.900;2022-09-12T12:38:31;3.90;;;2.50;;
50337;SDS011;46221;51.178;5.900;2022-09-12T12:43:47;3.50;;;2.50;;
50337;SDS011;46221;51.178;5.900;2022-09-12T12:46:15;3.30;;;2.50;;
50337;SDS011;46221;51.178;5.900;2022-09-12T12:54:25;3.95;;;2.53;;
50337;SDS011;46221;51.178;5.900;2022-09-12T12:59:44;3.85;;;2.55;;
50337;SDS011;46221;51.178;5.900;2022-09-12T13:04:50;3.35;;;2.30;;
50337;SDS011;46221;51.178;5.900;2022-09-12T13:07:24;2.75;;;2.25;;
50337;SDS011;46221;51.178;5.900;2022-09-12T13:09:53;3.80;;;2.33;;
50337;SDS011;46221;51.178;5.900;2022-09-12T13:12:24;3.20;;;2.35;;
50337;SDS011;46221;51.178;5.900;2022-09-12T13:14:55;3.05;;;2.00;;
50337;SDS011;46221;51.178;5.900;2022-09-12T13:20:00;2.55;;;2.05;;
50337;SDS011;46221;51.178;5.900;2022-09-12T13:22:49;2.67;;;2.30;;
50337;SDS011;46221;51.178;5.900;2022-09-12T13:25:22;3.50;;;2.30;;
50337;SDS011;46221;51.178;5.900;2022-09-12T13:28:23;2.17;;;1.77;;
50337;SDS011;46221;51.178;5.900;2022-09-12T13:30:42;3.72;;;2.25;;
50337;SDS011;46221;51.178;5.900;2022-09-12T13:33:20;2.70;;;1.95;;
50337;SDS011;46221;51.178;5.900;2022-09-12T13:35:53;3.22;;;2.17;;
50337;SDS011;46221;51.178;5.900;2022-09-12T13:43:54;3.33;;;2.10;;
50337;SDS011;46221;51.178;5.900;2022-09-12T13:46:25;3.38;;;2.05;;
50337;SDS011;46221;51.178;5.900;2022-09-12T13:48:53;3.17;;;2.05;;
50337;SDS011;46221;51.178;5.900;2022-09-12T13:51:23;3.03;;;2.00;;
50337;SDS011;46221;51.178;5.900;2022-09-12T13:53:51;2.83;;;1.98;;
50337;SDS011;46221;51.178;5.900;2022-09-12T13:56:19;2.75;;;2.30;;
50337;SDS011;46221;51.178;5.900;2022-09-12T13:58:55;3.42;;;2.10;;
50337;SDS011;46221;51.178;5.900;2022-09-12T14:01:23;2.70;;;2.10;;
50337;SDS011;46221;51.178;5.900;2022-09-12T14:03:51;3.30;;;2.15;;
50337;SDS011;46221;51.178;5.900;2022-09-12T14:06:46;2.53;;;2.08;;
50337;SDS011;46221;51.178;5.900;2022-09-12T14:09:18;2.63;;;1.85;;
50337;SDS011;46221;51.178;5.900;2022-09-12T14:11:50;2.85;;;2.00;;
50337;SDS011;46221;51.178;5.900;2022-09-12T14:14:18;3.75;;;2.22;;
50337;SDS011;46221;51.178;5.900;2022-09-12T14:16:45;3.03;;;2.28;;
50337;SDS011;46221;51.178;5.900;2022-09-12T14:19:12;2.80;;;2.00;;
50337;SDS011;46221;51.178;5.900;2022-09-12T14:21:41;2.88;;;1.67;;
50337;SDS011;46221;51.178;5.900;2022-09-12T14:24:08;3.33;;;1.95;;
50337;SDS011;46221;51.178;5.900;2022-09-12T14:26:38;3.15;;;1.70;;
50337;SDS011;46221;51.178;5.900;2022-09-12T14:29:07;4.80;;;1.90;;
50337;SDS011;46221;51.178;5.900;2022-09-12T14:31:35;2.80;;;2.22;;
50337;SDS011;46221;51.178;5.900;2022-09-12T14:34:09;2.60;;;1.70;;
50337;SDS011;46221;51.178;5.900;2022-09-12T14:41:42;2.60;;;1.73;;
50337;SDS011;46221;51.178;5.900;2022-09-12T14:44:13;2.65;;;1.90;;
50337;SDS011;46221;51.178;5.900;2022-09-12T14:46:40;3.28;;;2.05;;
50337;SDS011;46221;51.178;5.900;2022-09-12T14:49:08;2.35;;;1.70;;
50337;SDS011;46221;51.178;5.900;2022-09-12T14:51:37;2.33;;;1.70;;
50337;SDS011;46221;51.178;5.900;2022-09-12T14:54:04;3.28;;;2.00;;
50337;SDS011;46221;51.178;5.900;2022-09-12T14:59:19;2.85;;;1.80;;
50337;SDS011;46221;51.178;5.900;2022-09-12T15:02:37;2.80;;;1.50;;
50337;SDS011;46221;51.178;5.900;2022-09-12T15:05:14;2.00;;;1.60;;
50337;SDS011;46221;51.178;5.900;2022-09-12T15:09:51;2.90;;;1.90;;
50337;SDS011;46221;51.178;5.900;2022-09-12T15:12:18;2.40;;;1.42;;
50337;SDS011;46221;51.178;5.900;2022-09-12T15:14:44;2.45;;;1.63;;
50337;SDS011;46221;51.178;5.900;2022-09-12T15:17:12;3.38;;;1.88;;
50337;SDS011;46221;51.178;5.900;2022-09-12T15:19:38;1.95;;;1.52;;
50337;SDS011;46221;51.178;5.900;2022-09-12T15:22:05;2.10;;;1.67;;
50337;SDS011;46221;51.178;5.900;2022-09-12T15:24:31;2.80;;;1.98;;
50337;SDS011;46221;51.178;5.900;2022-09-12T15:26:58;3.00;;;1.45;;
50337;SDS011;46221;51.178;5.900;2022-09-12T15:29:24;2.10;;;1.67;;
50337;SDS011;46221;51.178;5.900;2022-09-12T15:31:51;2.13;;;1.63;;
50337;SDS011;46221;51.178;5.900;2022-09-12T15:34:17;2.58;;;1.70;;
50337;SDS011;46221;51.178;5.900;2022-09-12T15:36:44;2.33;;;1.63;;
50337;SDS011;46221;51.178;5.900;2022-09-12T15:39:11;2.30;;;1.60;;
50337;SDS011;46221;51.178;5.900;2022-09-12T15:41:37;1.98;;;1.40;;
50337;SDS011;46221;51.178;5.900;2022-09-12T15:44:04;2.28;;;1.70;;
50337;SDS011;46221;51.178;5.900;2022-09-12T15:46:30;2.85;;;1.60;;
50337;SDS011;46221;51.178;5.900;2022-09-12T15:48:56;2.30;;;1.60;;
50337;SDS011;46221;51.178;5.900;2022-09-12T15:51:23;2.60;;;1.52;;
50337;SDS011;46221;51.178;5.900;2022-09-12T15:53:50;2.20;;;1.55;;
50337;SDS011;46221;51.178;5.900;2022-09-12T15:56:17;2.50;;;1.98;;
50337;SDS011;46221;51.178;5.900;2022-09-12T15:58:43;1.98;;;1.38;;
50337;SDS011;46221;51.178;5.900;2022-09-12T16:01:25;2.60;;;1.50;;
50337;SDS011;46221;51.178;5.900;2022-09-12T16:03:52;2.35;;;1.67;;
50337;SDS011;46221;51.178;5.900;2022-09-12T16:06:19;3.17;;;1.70;;
50337;SDS011;46221;51.178;5.900;2022-09-12T16:08:45;2.03;;;1.58;;
50337;SDS011;46221;51.178;5.900;2022-09-12T16:11:30;2.83;;;1.63;;
50337;SDS011;46221;51.178;5.900;2022-09-12T16:13:57;2.65;;;1.50;;
50337;SDS011;46221;51.178;5.900;2022-09-12T16:16:25;2.63;;;1.60;;
50337;SDS011;46221;51.178;5.900;2022-09-12T16:18:51;3.10;;;1.70;;
50337;SDS011;46221;51.178;5.900;2022-09-12T16:21:18;2.42;;;1.52;;
50337;SDS011;46221;51.178;5.900;2022-09-12T16:23:44;2.03;;;1.40;;
50337;SDS011;46221;51.178;5.900;2022-09-12T16:26:11;3.35;;;1.90;;
50337;SDS011;46221;51.178;5.900;2022-09-12T16:28:38;2.22;;;1.55;;
50337;SDS011;46221;51.178;5.900;2022-09-12T16:31:05;2.17;;;1.50;;
50337;SDS011;46221;51.178;5.900;2022-09-12T16:33:32;3.28;;;1.50;;
50337;SDS011;46221;51.178;5.900;2022-09-12T16:36:02;2.08;;;1.50;;
50337;SDS011;46221;51.178;5.900;2022-09-12T16:38:29;2.47;;;1.58;;
50337;SDS011;46221;51.178;5.900;2022-09-12T16:41:02;2.25;;;1.40;;
50337;SDS011;46221;51.178;5.900;2022-09-12T16:43:30;2.20;;;1.20;;
50337;SDS011;46221;51.178;5.900;2022-09-12T16:46:03;2.20;;;1.70;;
50337;SDS011;46221;51.178;5.900;2022-09-12T16:48:31;2.55;;;1.30;;
50337;SDS011;46221;51.178;5.900;2022-09-12T16:50:58;1.95;;;1.75;;
50337;SDS011;46221;51.178;5.900;2022-09-12T16:53:33;1.42;;;1.15;;
50337;SDS011;46221;51.178;5.900;2022-09-12T16:56:00;2.10;;;1.48;;
50337;SDS011;46221;51.178;5.900;2022-09-12T16:58:27;2.30;;;1.50;;
50337;SDS011;46221;51.178;5.900;2022-09-12T17:01:04;2.70;;;1.92;;
50337;SDS011;46221;51.178;5.900;2022-09-12T17:03:30;2.15;;;1.40;;
50337;SDS011;46221;51.178;5.900;2022-09-12T17:06:01;2.42;;;1.58;;
50337;SDS011;46221;51.178;5.900;2022-09-12T17:08:28;1.95;;;1.27;;
50337;SDS011;46221;51.178;5.900;2022-09-12T17:10:58;2.65;;;1.80;;
50337;SDS011;46221;51.178;5.900;2022-09-12T17:13:25;1.80;;;1.40;;
50337;SDS011;46221;51.178;5.900;2022-09-12T17:16:11;2.22;;;1.45;;
50337;SDS011;46221;51.178;5.900;2022-09-12T17:18:38;2.30;;;1.40;;
50337;SDS011;46221;51.178;5.900;2022-09-12T17:21:05;2.33;;;1.42;;
50337;SDS011;46221;51.178;5.900;2022-09-12T17:23:31;2.53;;;1.55;;